sensor_id;sensor_type;location;lat;lon;timestamp;pressure;altitude;pressure_sealevel;temperature;humidity
4022;BME280;2025;48.260;16.432;2023-08-06T00:00:59;98689.53;;;15.20;100.00
4022;BME280;2025;48.260;16.432;2023-08-06T00:03:26;98689.41;;;15.14;100.00
4022;BME280;2025;48.260;16.432;2023-08-06T00:05:53;98683.28;;;15.14;100.00
4022;BME280;2025;48.260;16.432;2023-08-06T00:08:20;98682.25;;;15.15;100.00
4022;BME280;2025;48.260;16.432;2023-08-06T00:10:49;98678.00;;;15.14;100.00
4022;BME280;2025;48.260;16.432;2023-08-06T00:13:16;98678.38;;;15.17;100.00
4022;BME280;2025;48.260;16.432;2023-08-06T00:15:43;98671.63;;;15.15;100.00
4022;BME280;2025;48.260;16.432;2023-08-06T00:18:09;98676.16;;;15.14;100.00
4022;BME280;2025;48.260;16.432;2023-08-06T00:20:38;98677.41;;;15.12;100.00
4022;BME280;2025;48.260;16.432;2023-08-06T00:23:06;98679.25;;;15.11;100.00
4022;BME280;2025;48.260;16.432;2023-08-06T00:25:33;98679.47;;;15.10;100.00
4022;BME280;2025;48.260;16.432;2023-08-06T00:28:01;98691.13;;;15.09;100.00
4022;BME280;2025;48.260;16.432;2023-08-06T00:30:28;98689.47;;;15.08;100.00
4022;BME280;2025;48.260;16.432;2023-08-06T00:32:55;98686.84;;;15.08;100.00
4022;BME280;2025;48.260;16.432;2023-08-06T00:35:22;98686.25;;;15.06;100.00
4022;BME280;2025;48.260;16.432;2023-08-06T00:37:49;98688.69;;;15.07;100.00
4022;BME280;2025;48.260;16.432;2023-08-06T00:40:16;98674.03;;;15.05;100.00
4022;BME280;2025;48.260;16.432;2023-08-06T00:42:46;98667.13;;;15.04;100.00
4022;BME280;2025;48.260;16.432;2023-08-06T00:45:14;98675.22;;;15.09;100.00
4022;BME280;2025;48.260;16.432;2023-08-06T00:47:41;98673.56;;;15.08;100.00
4022;BME280;2025;48.260;16.432;2023-08-06T00:50:09;98670.13;;;15.07;100.00
4022;BME280;2025;48.260;16.432;2023-08-06T00:52:36;98667.94;;;15.04;100.00
4022;BME280;2025;48.260;16.432;2023-08-06T00:55:04;98665.50;;;15.03;100.00
4022;BME280;2025;48.260;16.432;2023-08-06T00:57:31;98667.78;;;14.99;100.00
4022;BME280;2025;48.260;16.432;2023-08-06T00:59:58;98644.94;;;14.98;100.00
4022;BME280;2025;48.260;16.432;2023-08-06T01:02:26;98636.56;;;15.01;100.00
4022;BME280;2025;48.260;16.432;2023-08-06T01:04:53;98637.38;;;15.02;99.83
4022;BME280;2025;48.260;16.432;2023-08-06T01:07:32;98641.88;;;15.01;99.97
4022;BME280;2025;48.260;16.432;2023-08-06T01:10:18;98644.06;;;15.04;99.02
4022;BME280;2025;48.260;16.432;2023-08-06T01:12:52;98633.91;;;15.01;99.09
4022;BME280;2025;48.260;16.432;2023-08-06T01:15:25;98639.91;;;14.96;99.71
4022;BME280;2025;48.260;16.432;2023-08-06T01:17:56;98642.75;;;14.95;99.89
4022;BME280;2025;48.260;16.432;2023-08-06T01:20:29;98641.72;;;14.96;99.97
4022;BME280;2025;48.260;16.432;2023-08-06T01:22:56;98643.22;;;14.92;100.00
4022;BME280;2025;48.260;16.432;2023-08-06T01:25:27;98642.97;;;14.93;100.00
4022;BME280;2025;48.260;16.432;2023-08-06T01:28:03;98637.91;;;14.92;100.00
4022;BME280;2025;48.260;16.432;2023-08-06T01:30:33;98635.94;;;14.87;100.00
4022;BME280;2025;48.260;16.432;2023-08-06T01:33:04;98635.09;;;14.87;100.00
4022;BME280;2025;48.260;16.432;2023-08-06T01:35:33;98631.44;;;14.88;100.00
4022;BME280;2025;48.260;16.432;2023-08-06T01:38:02;98625.41;;;14.81;100.00
4022;BME280;2025;48.260;16.432;2023-08-06T01:40:29;98626.56;;;14.85;100.00
4022;BME280;2025;48.260;16.432;2023-08-06T01:42:57;98619.06;;;14.82;100.00
4022;BME280;2025;48.260;16.432;2023-08-06T01:45:24;98627.47;;;14.79;100.00
4022;BME280;2025;48.260;16.432;2023-08-06T01:47:51;98629.09;;;14.80;100.00
4022;BME280;2025;48.260;16.432;2023-08-06T01:50:18;98627.28;;;14.80;100.00
4022;BME280;2025;48.260;16.432;2023-08-06T01:52:46;98627.69;;;14.77;100.00
4022;BME280;2025;48.260;16.432;2023-08-06T01:55:13;98616.88;;;14.79;100.00
4022;BME280;2025;48.260;16.432;2023-08-06T01:57:39;98612.84;;;14.76;100.00
4022;BME280;2025;48.260;16.432;2023-08-06T02:00:07;98614.91;;;14.74;100.00
4022;BME280;2025;48.260;16.432;2023-08-06T02:02:34;98609.38;;;14.75;100.00
4022;BME280;2025;48.260;16.432;2023-08-06T02:05:01;98602.25;;;14.76;100.00
4022;BME280;2025;48.260;16.432;2023-08-06T02:07:28;98596.56;;;14.72;100.00
4022;BME280;2025;48.260;16.432;2023-08-06T02:09:56;98579.28;;;14.70;100.00
4022;BME280;2025;48.260;16.432;2023-08-06T02:12:23;98595.84;;;14.65;100.00
4022;BME280;2025;48.260;16.432;2023-08-06T02:14:50;98591.22;;;14.61;100.00
4022;BME280;2025;48.260;16.432;2023-08-06T02:17:17;98584.97;;;14.55;100.00
4022;BME280;2025;48.260;16.432;2023-08-06T02:19:44;98588.44;;;14.56;100.00
4022;BME280;2025;48.260;16.432;2023-08-06T02:22:11;98585.38;;;14.52;100.00
4022;BME280;2025;48.260;16.432;2023-08-06T02:24:38;98587.00;;;14.53;100.00
4022;BME280;2025;48.260;16.432;2023-08-06T02:27:06;98592.16;;;14.48;100.00
4022;BME280;2025;48.260;16.432;2023-08-06T02:29:34;98588.25;;;14.50;100.00
4022;BME280;2025;48.260;16.432;2023-08-06T02:32:01;98582.97;;;14.50;100.00
4022;BME280;2025;48.260;16.432;2023-08-06T02:34:28;98580.06;;;14.52;100.00
4022;BME280;2025;48.260;16.432;2023-08-06T02:36:55;98577.03;;;14.55;100.00
4022;BME280;2025;48.260;16.432;2023-08-06T02:39:22;98579.88;;;14.53;100.00
4022;BME280;2025;48.260;16.432;2023-08-06T02:41:48;98567.44;;;14.54;100.00
4022;BME280;2025;48.260;16.432;2023-08-06T02:44:17;98558.25;;;14.57;99.99
4022;BME280;2025;48.260;16.432;2023-08-06T02:46:44;98554.91;;;14.61;100.00
4022;BME280;2025;48.260;16.432;2023-08-06T02:49:11;98553.91;;;14.62;99.35
4022;BME280;2025;48.260;16.432;2023-08-06T02:51:38;98541.25;;;14.64;99.01
4022;BME280;2025;48.260;16.432;2023-08-06T02:54:05;98554.72;;;14.63;99.23
4022;BME280;2025;48.260;16.432;2023-08-06T02:56:32;98544.91;;;14.63;99.18
4022;BME280;2025;48.260;16.432;2023-08-06T02:58:59;98553.31;;;14.60;99.59
4022;BME280;2025;48.260;16.432;2023-08-06T03:01:27;98555.16;;;14.60;98.99
4022;BME280;2025;48.260;16.432;2023-08-06T03:03:54;98560.47;;;14.60;98.76
4022;BME280;2025;48.260;16.432;2023-08-06T03:06:21;98568.75;;;14.63;97.99
4022;BME280;2025;48.260;16.432;2023-08-06T03:08:48;98563.84;;;14.67;98.09
4022;BME280;2025;48.260;16.432;2023-08-06T03:11:15;98576.03;;;14.68;97.69
4022;BME280;2025;48.260;16.432;2023-08-06T03:13:42;98573.75;;;14.71;97.21
4022;BME280;2025;48.260;16.432;2023-08-06T03:16:09;98578.81;;;14.73;97.72
4022;BME280;2025;48.260;16.432;2023-08-06T03:18:37;98571.44;;;14.75;97.66
4022;BME280;2025;48.260;16.432;2023-08-06T03:21:04;98571.25;;;14.77;97.12
4022;BME280;2025;48.260;16.432;2023-08-06T03:23:31;98563.41;;;14.82;95.51
4022;BME280;2025;48.260;16.432;2023-08-06T03:26:01;98566.44;;;14.85;95.56
4022;BME280;2025;48.260;16.432;2023-08-06T03:28:28;98571.66;;;14.92;94.73
4022;BME280;2025;48.260;16.432;2023-08-06T03:31:01;98573.84;;;14.95;93.46
4022;BME280;2025;48.260;16.432;2023-08-06T03:33:29;98566.47;;;14.97;93.60
4022;BME280;2025;48.260;16.432;2023-08-06T03:35:57;98567.63;;;15.01;94.07
4022;BME280;2025;48.260;16.432;2023-08-06T03:38:24;98560.25;;;15.03;92.68
4022;BME280;2025;48.260;16.432;2023-08-06T03:40:51;98563.94;;;15.02;93.57
4022;BME280;2025;48.260;16.432;2023-08-06T03:43:18;98551.03;;;15.06;92.94
4022;BME280;2025;48.260;16.432;2023-08-06T03:45:45;98558.41;;;15.04;92.44
4022;BME280;2025;48.260;16.432;2023-08-06T03:48:12;98552.88;;;15.05;92.68
4022;BME280;2025;48.260;16.432;2023-08-06T03:50:39;98554.25;;;15.08;92.36
4022;BME280;2025;48.260;16.432;2023-08-06T03:53:08;98546.88;;;15.10;91.83
4022;BME280;2025;48.260;16.432;2023-08-06T03:55:34;98549.53;;;15.10;93.00
4022;BME280;2025;48.260;16.432;2023-08-06T03:58:01;98546.19;;;15.14;92.11
4022;BME280;2025;48.260;16.432;2023-08-06T04:00:28;98549.44;;;15.16;91.66
4022;BME280;2025;48.260;16.432;2023-08-06T04:02:55;98561.44;;;15.19;92.00
4022;BME280;2025;48.260;16.432;2023-08-06T04:05:22;98563.41;;;15.24;91.40
4022;BME280;2025;48.260;16.432;2023-08-06T04:07:49;98561.00;;;15.22;90.83
4022;BME280;2025;48.260;16.432;2023-08-06T04:10:18;98556.25;;;15.24;91.42
4022;BME280;2025;48.260;16.432;2023-08-06T04:12:45;98565.63;;;15.27;89.72
4022;BME280;2025;48.260;16.432;2023-08-06T04:15:12;98571.72;;;15.27;90.35
4022;BME280;2025;48.260;16.432;2023-08-06T04:17:39;98554.75;;;15.28;89.69
4022;BME280;2025;48.260;16.432;2023-08-06T04:20:07;98549.25;;;15.30;90.29
4022;BME280;2025;48.260;16.432;2023-08-06T04:22:34;98550.84;;;15.31;90.28
4022;BME280;2025;48.260;16.432;2023-08-06T04:25:01;98543.25;;;15.34;89.63
4022;BME280;2025;48.260;16.432;2023-08-06T04:27:29;98544.84;;;15.35;89.77
4022;BME280;2025;48.260;16.432;2023-08-06T04:29:56;98545.66;;;15.36;89.77
4022;BME280;2025;48.260;16.432;2023-08-06T04:32:23;98528.72;;;15.37;89.23
4022;BME280;2025;48.260;16.432;2023-08-06T04:34:51;98532.97;;;15.38;89.40
4022;BME280;2025;48.260;16.432;2023-08-06T04:37:18;98535.03;;;15.36;88.11
4022;BME280;2025;48.260;16.432;2023-08-06T04:39:45;98545.22;;;15.39;89.32
4022;BME280;2025;48.260;16.432;2023-08-06T04:42:12;98541.97;;;15.37;88.59
4022;BME280;2025;48.260;16.432;2023-08-06T04:44:40;98536.88;;;15.35;88.02
4022;BME280;2025;48.260;16.432;2023-08-06T04:47:07;98537.69;;;15.36;88.59
4022;BME280;2025;48.260;16.432;2023-08-06T04:49:34;98534.81;;;15.37;87.91
4022;BME280;2025;48.260;16.432;2023-08-06T04:52:01;98553.50;;;15.43;87.05
4022;BME280;2025;48.260;16.432;2023-08-06T04:54:28;98535.19;;;15.41;87.82
4022;BME280;2025;48.260;16.432;2023-08-06T04:56:55;98526.84;;;15.37;88.77
4022;BME280;2025;48.260;16.432;2023-08-06T04:59:22;98524.78;;;15.39;88.55
4022;BME280;2025;48.260;16.432;2023-08-06T05:01:50;98541.75;;;15.38;88.29
4022;BME280;2025;48.260;16.432;2023-08-06T05:04:17;98541.50;;;15.40;87.95
4022;BME280;2025;48.260;16.432;2023-08-06T05:06:44;98534.72;;;15.44;87.33
4022;BME280;2025;48.260;16.432;2023-08-06T05:09:11;98529.19;;;15.46;87.84
4022;BME280;2025;48.260;16.432;2023-08-06T05:11:38;98525.84;;;15.50;86.81
4022;BME280;2025;48.260;16.432;2023-08-06T05:14:05;98535.97;;;15.53;87.42
4022;BME280;2025;48.260;16.432;2023-08-06T05:16:32;98536.44;;;15.50;86.68
4022;BME280;2025;48.260;16.432;2023-08-06T05:19:00;98534.72;;;15.56;85.90
4022;BME280;2025;48.260;16.432;2023-08-06T05:21:27;98530.09;;;15.51;86.57
4022;BME280;2025;48.260;16.432;2023-08-06T05:23:54;98543.47;;;15.56;86.86
4022;BME280;2025;48.260;16.432;2023-08-06T05:26:21;98534.50;;;15.57;85.81
4022;BME280;2025;48.260;16.432;2023-08-06T05:28:48;98549.72;;;15.62;85.32
4022;BME280;2025;48.260;16.432;2023-08-06T05:31:15;98534.72;;;15.56;86.36
4022;BME280;2025;48.260;16.432;2023-08-06T05:33:42;98545.53;;;15.54;86.71
4022;BME280;2025;48.260;16.432;2023-08-06T05:36:10;98541.06;;;15.55;87.18
4022;BME280;2025;48.260;16.432;2023-08-06T05:38:37;98546.69;;;15.58;85.72
4022;BME280;2025;48.260;16.432;2023-08-06T05:41:04;98538.53;;;15.60;85.34
4022;BME280;2025;48.260;16.432;2023-08-06T05:43:31;98551.78;;;15.60;85.22
4022;BME280;2025;48.260;16.432;2023-08-06T05:45:58;98541.19;;;15.60;85.74
4022;BME280;2025;48.260;16.432;2023-08-06T05:48:25;98548.09;;;15.61;85.20
4022;BME280;2025;48.260;16.432;2023-08-06T05:50:53;98544.16;;;15.64;85.20
4022;BME280;2025;48.260;16.432;2023-08-06T05:53:21;98544.75;;;15.66;85.98
4022;BME280;2025;48.260;16.432;2023-08-06T05:55:48;98540.22;;;15.66;85.26
4022;BME280;2025;48.260;16.432;2023-08-06T05:58:15;98535.41;;;15.63;85.28
4022;BME280;2025;48.260;16.432;2023-08-06T06:00:43;98543.72;;;15.67;85.26
4022;BME280;2025;48.260;16.432;2023-08-06T06:03:09;98544.88;;;15.71;84.18
4022;BME280;2025;48.260;16.432;2023-08-06T06:05:37;98544.88;;;15.71;83.87
4022;BME280;2025;48.260;16.432;2023-08-06T06:08:05;98546.50;;;15.72;84.22
4022;BME280;2025;48.260;16.432;2023-08-06T06:10:33;98549.28;;;15.77;84.23
4022;BME280;2025;48.260;16.432;2023-08-06T06:13:00;98558.13;;;15.83;84.58
4022;BME280;2025;48.260;16.432;2023-08-06T06:15:27;98562.53;;;15.77;85.73
4022;BME280;2025;48.260;16.432;2023-08-06T06:17:54;98563.34;;;15.77;84.19
4022;BME280;2025;48.260;16.432;2023-08-06T06:20:21;98570.63;;;15.70;84.25
4022;BME280;2025;48.260;16.432;2023-08-06T06:22:48;98570.28;;;15.78;84.20
4022;BME280;2025;48.260;16.432;2023-08-06T06:25:15;98569.44;;;15.78;84.42
4022;BME280;2025;48.260;16.432;2023-08-06T06:27:43;98573.97;;;15.77;84.19
4022;BME280;2025;48.260;16.432;2023-08-06T06:30:11;98583.09;;;15.82;84.42
4022;BME280;2025;48.260;16.432;2023-08-06T06:32:38;98574.31;;;15.81;84.41
4022;BME280;2025;48.260;16.432;2023-08-06T06:35:07;98577.56;;;15.83;84.36
4022;BME280;2025;48.260;16.432;2023-08-06T06:37:34;98583.19;;;15.87;83.41
4022;BME280;2025;48.260;16.432;2023-08-06T06:40:01;98569.47;;;15.90;83.72
4022;BME280;2025;48.260;16.432;2023-08-06T06:42:29;98575.47;;;15.97;83.82
4022;BME280;2025;48.260;16.432;2023-08-06T06:44:57;98563.78;;;15.98;83.48
4022;BME280;2025;48.260;16.432;2023-08-06T06:47:24;98568.41;;;16.02;82.73
4022;BME280;2025;48.260;16.432;2023-08-06T06:49:51;98569.09;;;16.10;83.42
4022;BME280;2025;48.260;16.432;2023-08-06T06:52:18;98564.91;;;16.14;82.72
4022;BME280;2025;48.260;16.432;2023-08-06T06:54:45;98560.28;;;16.21;84.03
4022;BME280;2025;48.260;16.432;2023-08-06T06:57:12;98568.84;;;16.23;82.72
4022;BME280;2025;48.260;16.432;2023-08-06T06:59:39;98563.50;;;16.23;82.16
4022;BME280;2025;48.260;16.432;2023-08-06T07:02:07;98566.72;;;16.37;82.49
4022;BME280;2025;48.260;16.432;2023-08-06T07:04:34;98562.19;;;16.37;82.47
4022;BME280;2025;48.260;16.432;2023-08-06T07:07:01;98554.31;;;16.42;81.84
4022;BME280;2025;48.260;16.432;2023-08-06T07:09:28;98561.50;;;16.42;82.13
4022;BME280;2025;48.260;16.432;2023-08-06T07:11:55;98566.41;;;16.50;82.59
4022;BME280;2025;48.260;16.432;2023-08-06T07:14:22;98565.53;;;16.44;82.65
4022;BME280;2025;48.260;16.432;2023-08-06T07:16:49;98560.78;;;16.47;83.84
4022;BME280;2025;48.260;16.432;2023-08-06T07:19:17;98564.47;;;16.46;82.48
4022;BME280;2025;48.260;16.432;2023-08-06T07:21:44;98568.19;;;16.44;82.69
4022;BME280;2025;48.260;16.432;2023-08-06T07:24:11;98563.94;;;16.43;82.54
4022;BME280;2025;48.260;16.432;2023-08-06T07:26:38;98567.97;;;16.46;82.57
4022;BME280;2025;48.260;16.432;2023-08-06T07:29:05;98569.09;;;16.50;82.40
4022;BME280;2025;48.260;16.432;2023-08-06T07:31:32;98574.97;;;16.52;83.69
4022;BME280;2025;48.260;16.432;2023-08-06T07:33:59;98565.72;;;16.55;82.96
4022;BME280;2025;48.260;16.432;2023-08-06T07:36:27;98570.56;;;16.58;82.90
4022;BME280;2025;48.260;16.432;2023-08-06T07:38:54;98569.59;;;16.64;82.93
4022;BME280;2025;48.260;16.432;2023-08-06T07:41:22;98570.75;;;16.68;84.24
4022;BME280;2025;48.260;16.432;2023-08-06T07:43:49;98568.66;;;16.70;83.45
4022;BME280;2025;48.260;16.432;2023-08-06T07:46:16;98559.38;;;16.84;82.92
4022;BME280;2025;48.260;16.432;2023-08-06T07:48:43;98564.13;;;16.82;82.00
4022;BME280;2025;48.260;16.432;2023-08-06T07:51:10;98556.63;;;16.79;81.42
4022;BME280;2025;48.260;16.432;2023-08-06T07:53:38;98557.44;;;16.80;81.77
4022;BME280;2025;48.260;16.432;2023-08-06T07:56:05;98551.75;;;16.88;80.84
4022;BME280;2025;48.260;16.432;2023-08-06T07:58:32;98543.94;;;16.98;80.25
4022;BME280;2025;48.260;16.432;2023-08-06T08:00:59;98547.31;;;16.94;79.83
4022;BME280;2025;48.260;16.432;2023-08-06T08:03:26;98557.00;;;17.00;82.27
4022;BME280;2025;48.260;16.432;2023-08-06T08:05:55;98561.03;;;17.02;79.07
4022;BME280;2025;48.260;16.432;2023-08-06T08:08:24;98553.91;;;16.91;79.59
4022;BME280;2025;48.260;16.432;2023-08-06T08:10:53;98561.00;;;16.85;80.01
4022;BME280;2025;48.260;16.432;2023-08-06T08:13:20;98554.56;;;16.81;80.75
4022;BME280;2025;48.260;16.432;2023-08-06T08:15:47;98563.09;;;16.83;80.36
4022;BME280;2025;48.260;16.432;2023-08-06T08:18:14;98562.16;;;16.78;80.77
4022;BME280;2025;48.260;16.432;2023-08-06T08:20:41;98550.72;;;16.77;82.78
4022;BME280;2025;48.260;16.432;2023-08-06T08:23:08;98541.50;;;16.80;80.50
4022;BME280;2025;48.260;16.432;2023-08-06T08:25:35;98532.22;;;16.82;80.15
4022;BME280;2025;48.260;16.432;2023-08-06T08:28:03;98533.38;;;16.87;78.91
4022;BME280;2025;48.260;16.432;2023-08-06T08:30:30;98524.59;;;16.86;78.83
4022;BME280;2025;48.260;16.432;2023-08-06T08:32:57;98535.38;;;16.96;78.32
4022;BME280;2025;48.260;16.432;2023-08-06T08:35:24;98529.50;;;16.94;78.15
4022;BME280;2025;48.260;16.432;2023-08-06T08:37:51;98532.50;;;16.98;79.08
4022;BME280;2025;48.260;16.432;2023-08-06T08:40:18;98542.97;;;17.04;78.61
4022;BME280;2025;48.260;16.432;2023-08-06T08:42:45;98545.22;;;17.13;79.10
4022;BME280;2025;48.260;16.432;2023-08-06T08:45:14;98549.19;;;17.10;79.12
4022;BME280;2025;48.260;16.432;2023-08-06T08:47:42;98562.56;;;17.15;78.41
4022;BME280;2025;48.260;16.432;2023-08-06T08:50:10;98543.06;;;17.10;78.54
4022;BME280;2025;48.260;16.432;2023-08-06T08:52:38;98552.75;;;17.16;79.01
4022;BME280;2025;48.260;16.432;2023-08-06T08:55:08;98554.44;;;17.22;79.08
4022;BME280;2025;48.260;16.432;2023-08-06T08:57:35;98545.72;;;17.10;79.68
4022;BME280;2025;48.260;16.432;2023-08-06T09:00:02;98553.28;;;17.01;79.51
4022;BME280;2025;48.260;16.432;2023-08-06T09:02:33;98552.75;;;17.16;79.57
4022;BME280;2025;48.260;16.432;2023-08-06T09:05:00;98545.94;;;17.08;79.45
4022;BME280;2025;48.260;16.432;2023-08-06T09:07:30;98546.53;;;17.10;79.32
4022;BME280;2025;48.260;16.432;2023-08-06T09:10:02;98552.00;;;17.03;79.06
4022;BME280;2025;48.260;16.432;2023-08-06T09:12:30;98554.75;;;17.09;77.83
4022;BME280;2025;48.260;16.432;2023-08-06T09:14:57;98564.19;;;16.99;78.63
4022;BME280;2025;48.260;16.432;2023-08-06T09:17:24;98591.63;;;16.88;78.81
4022;BME280;2025;48.260;16.432;2023-08-06T09:19:54;98575.81;;;16.81;80.07
4022;BME280;2025;48.260;16.432;2023-08-06T09:22:21;98577.78;;;16.86;80.82
4022;BME280;2025;48.260;16.432;2023-08-06T09:24:48;98577.38;;;16.94;78.99
4022;BME280;2025;48.260;16.432;2023-08-06T09:27:16;98576.47;;;16.89;79.69
4022;BME280;2025;48.260;16.432;2023-08-06T09:29:45;98568.81;;;16.92;79.02
4022;BME280;2025;48.260;16.432;2023-08-06T09:32:12;98584.06;;;16.97;78.92
4022;BME280;2025;48.260;16.432;2023-08-06T09:34:41;98582.22;;;16.97;78.61
4022;BME280;2025;48.260;16.432;2023-08-06T09:37:10;98584.13;;;16.85;78.93
4022;BME280;2025;48.260;16.432;2023-08-06T09:39:38;98564.81;;;16.78;79.03
4022;BME280;2025;48.260;16.432;2023-08-06T09:42:05;98584.03;;;16.80;78.67
4022;BME280;2025;48.260;16.432;2023-08-06T09:44:33;98583.81;;;16.81;79.08
4022;BME280;2025;48.260;16.432;2023-08-06T09:47:01;98578.72;;;16.80;77.80
4022;BME280;2025;48.260;16.432;2023-08-06T09:49:41;98580.34;;;16.81;78.17
4022;BME280;2025;48.260;16.432;2023-08-06T09:52:12;98585.28;;;16.77;78.80
4022;BME280;2025;48.260;16.432;2023-08-06T09:54:43;98586.69;;;16.80;79.86
4022;BME280;2025;48.260;16.432;2023-08-06T09:57:10;98577.09;;;16.79;80.42
4022;BME280;2025;48.260;16.432;2023-08-06T09:59:38;98572.09;;;16.82;79.66
4022;BME280;2025;48.260;16.432;2023-08-06T10:02:12;98583.00;;;16.81;79.75
4022;BME280;2025;48.260;16.432;2023-08-06T10:04:39;98575.03;;;16.81;77.94
4022;BME280;2025;48.260;16.432;2023-08-06T10:07:06;98590.50;;;16.84;78.21
4022;BME280;2025;48.260;16.432;2023-08-06T10:09:34;98587.75;;;16.79;79.36
4022;BME280;2025;48.260;16.432;2023-08-06T10:12:02;98595.00;;;16.83;77.45
4022;BME280;2025;48.260;16.432;2023-08-06T10:14:32;98583.56;;;16.71;77.99
4022;BME280;2025;48.260;16.432;2023-08-06T10:17:00;98589.00;;;16.76;77.39
4022;BME280;2025;48.260;16.432;2023-08-06T10:19:29;98595.13;;;16.77;77.70
4022;BME280;2025;48.260;16.432;2023-08-06T10:22:13;98599.28;;;16.73;75.50
4022;BME280;2025;48.260;16.432;2023-08-06T10:24:49;98590.41;;;16.79;75.63
4022;BME280;2025;48.260;16.432;2023-08-06T10:27:23;98611.06;;;16.77;75.71
4022;BME280;2025;48.260;16.432;2023-08-06T10:29:54;98595.34;;;16.75;73.47
4022;BME280;2025;48.260;16.432;2023-08-06T10:32:21;98602.88;;;16.78;74.15
4022;BME280;2025;48.260;16.432;2023-08-06T10:34:55;98606.22;;;16.85;73.37
4022;BME280;2025;48.260;16.432;2023-08-06T10:37:23;98608.03;;;16.85;72.02
4022;BME280;2025;48.260;16.432;2023-08-06T10:39:52;98614.28;;;16.91;71.94
4022;BME280;2025;48.260;16.432;2023-08-06T10:42:21;98618.53;;;16.92;71.47
4022;BME280;2025;48.260;16.432;2023-08-06T10:45:21;98607.09;;;16.91;71.78
4022;BME280;2025;48.260;16.432;2023-08-06T10:47:53;98606.97;;;16.98;71.05
4022;BME280;2025;48.260;16.432;2023-08-06T10:50:21;98612.84;;;17.00;71.53
4022;BME280;2025;48.260;16.432;2023-08-06T10:52:48;98607.53;;;17.00;73.36
4022;BME280;2025;48.260;16.432;2023-08-06T10:55:24;98616.88;;;17.02;72.99
4022;BME280;2025;48.260;16.432;2023-08-06T10:57:51;98606.34;;;17.08;74.47
4022;BME280;2025;48.260;16.432;2023-08-06T11:00:18;98614.53;;;17.06;73.84
4022;BME280;2025;48.260;16.432;2023-08-06T11:02:47;98626.59;;;16.97;73.97
4022;BME280;2025;48.260;16.432;2023-08-06T11:05:14;98614.94;;;16.98;75.00
4022;BME280;2025;48.260;16.432;2023-08-06T11:07:41;98622.91;;;16.98;75.42
4022;BME280;2025;48.260;16.432;2023-08-06T11:10:09;98616.53;;;16.99;75.26
4022;BME280;2025;48.260;16.432;2023-08-06T11:12:37;98629.03;;;16.98;77.11
4022;BME280;2025;48.260;16.432;2023-08-06T11:15:05;98632.84;;;17.02;75.20
4022;BME280;2025;48.260;16.432;2023-08-06T11:17:33;98623.72;;;16.98;76.98
4022;BME280;2025;48.260;16.432;2023-08-06T11:20:03;98628.81;;;17.00;76.66
4022;BME280;2025;48.260;16.432;2023-08-06T11:22:31;98627.44;;;16.97;78.67
4022;BME280;2025;48.260;16.432;2023-08-06T11:24:58;98627.94;;;17.11;79.71
4022;BME280;2025;48.260;16.432;2023-08-06T11:27:26;98636.00;;;17.16;79.09
4022;BME280;2025;48.260;16.432;2023-08-06T11:29:55;98631.59;;;17.22;78.81
4022;BME280;2025;48.260;16.432;2023-08-06T11:32:22;98635.75;;;17.18;77.04
4022;BME280;2025;48.260;16.432;2023-08-06T11:34:49;98623.13;;;17.25;78.19
4022;BME280;2025;48.260;16.432;2023-08-06T11:37:16;98638.78;;;17.38;77.78
4022;BME280;2025;48.260;16.432;2023-08-06T11:39:46;98645.16;;;17.37;78.64
4022;BME280;2025;48.260;16.432;2023-08-06T11:42:14;98654.28;;;17.41;79.31
4022;BME280;2025;48.260;16.432;2023-08-06T11:44:41;98646.84;;;17.43;79.41
4022;BME280;2025;48.260;16.432;2023-08-06T11:47:14;98639.91;;;17.42;78.76
4022;BME280;2025;48.260;16.432;2023-08-06T11:49:46;98656.13;;;17.41;78.69
4022;BME280;2025;48.260;16.432;2023-08-06T11:52:15;98650.22;;;17.39;77.74
4022;BME280;2025;48.260;16.432;2023-08-06T11:54:44;98653.78;;;17.44;79.61
4022;BME280;2025;48.260;16.432;2023-08-06T11:57:12;98660.50;;;17.47;78.86
4022;BME280;2025;48.260;16.432;2023-08-06T11:59:39;98657.56;;;17.32;78.85
4022;BME280;2025;48.260;16.432;2023-08-06T12:02:09;98661.91;;;17.21;77.96
4022;BME280;2025;48.260;16.432;2023-08-06T12:05:11;98664.66;;;16.97;79.56
4022;BME280;2025;48.260;16.432;2023-08-06T12:07:40;98680.19;;;16.89;79.41
4022;BME280;2025;48.260;16.432;2023-08-06T12:10:07;98672.81;;;16.79;80.47
4022;BME280;2025;48.260;16.432;2023-08-06T12:12:35;98669.78;;;16.87;80.78
4022;BME280;2025;48.260;16.432;2023-08-06T12:15:04;98674.38;;;16.92;80.44
4022;BME280;2025;48.260;16.432;2023-08-06T12:17:31;98672.91;;;16.84;80.21
4022;BME280;2025;48.260;16.432;2023-08-06T12:19:59;98675.34;;;16.85;80.78
4022;BME280;2025;48.260;16.432;2023-08-06T12:22:27;98683.06;;;16.75;79.22
4022;BME280;2025;48.260;16.432;2023-08-06T12:24:56;98675.81;;;16.71;80.65
4022;BME280;2025;48.260;16.432;2023-08-06T12:27:23;98675.00;;;16.70;80.29
4022;BME280;2025;48.260;16.432;2023-08-06T12:29:50;98680.41;;;16.75;80.47
4022;BME280;2025;48.260;16.432;2023-08-06T12:32:17;98682.28;;;16.75;80.46
4022;BME280;2025;48.260;16.432;2023-08-06T12:34:44;98681.69;;;16.84;80.75
4022;BME280;2025;48.260;16.432;2023-08-06T12:37:12;98682.19;;;16.81;79.04
4022;BME280;2025;48.260;16.432;2023-08-06T12:39:40;98688.97;;;16.89;79.50
4022;BME280;2025;48.260;16.432;2023-08-06T12:42:07;98688.97;;;16.89;78.62
4022;BME280;2025;48.260;16.432;2023-08-06T12:44:35;98695.66;;;16.92;79.50
4022;BME280;2025;48.260;16.432;2023-08-06T12:47:02;98684.31;;;16.96;78.73
4022;BME280;2025;48.260;16.432;2023-08-06T12:49:29;98686.34;;;17.06;78.54
4022;BME280;2025;48.260;16.432;2023-08-06T12:51:57;98686.69;;;17.10;78.00
4022;BME280;2025;48.260;16.432;2023-08-06T12:54:25;98689.50;;;17.03;77.14
4022;BME280;2025;48.260;16.432;2023-08-06T12:56:54;98688.00;;;17.07;77.94
4022;BME280;2025;48.260;16.432;2023-08-06T12:59:21;98699.28;;;17.14;77.30
4022;BME280;2025;48.260;16.432;2023-08-06T13:01:48;98685.59;;;17.22;78.41
4022;BME280;2025;48.260;16.432;2023-08-06T13:04:15;98685.72;;;17.27;77.46
4022;BME280;2025;48.260;16.432;2023-08-06T13:06:42;98688.81;;;17.24;76.50
4022;BME280;2025;48.260;16.432;2023-08-06T13:09:09;98689.03;;;17.35;76.81
4022;BME280;2025;48.260;16.432;2023-08-06T13:11:36;98693.38;;;17.41;76.93
4022;BME280;2025;48.260;16.432;2023-08-06T13:14:08;98691.63;;;17.46;75.68